createdAt,value
2022-12-18T00:00:11.959Z,100497.78
2022-12-18T00:02:38.533Z,100497.00
2022-12-18T00:05:04.975Z,100502.91
2022-12-18T00:07:31.409Z,100505.91
2022-12-18T00:09:57.809Z,100505.78
2022-12-18T00:12:24.225Z,100517.84
2022-12-18T00:14:50.602Z,100511.00
2022-12-18T00:17:17.253Z,100517.19
2022-12-18T00:19:43.747Z,100519.63
2022-12-18T00:22:10.188Z,100520.91
2022-12-18T00:24:36.854Z,100518.06
2022-12-18T00:27:03.260Z,100523.69
2022-12-18T00:29:29.685Z,100522.47
2022-12-18T00:31:56.133Z,100517.69
2022-12-18T00:34:22.564Z,100519.34
2022-12-18T00:36:49.051Z,100522.16
2022-12-18T00:39:15.395Z,100524.94
2022-12-18T00:41:41.820Z,100525.06
2022-12-18T00:44:08.254Z,100532.91
2022-12-18T00:46:34.722Z,100533.56
2022-12-18T00:49:01.217Z,100535.53
2022-12-18T00:51:27.627Z,100534.94
2022-12-18T00:53:54.064Z,100539.75
2022-12-18T00:56:20.627Z,100544.22
2022-12-18T00:58:47.052Z,100547.13
2022-12-18T01:01:13.610Z,100537.81
2022-12-18T01:03:40.633Z,100548.88
2022-12-18T01:06:07.360Z,100543.66
2022-12-18T01:08:33.737Z,100555.94
2022-12-18T01:11:00.331Z,100552.75
2022-12-18T01:13:26.733Z,100565.41
2022-12-18T01:15:53.252Z,100564.47
2022-12-18T01:18:19.838Z,100562.84
2022-12-18T01:20:46.288Z,100567.97
2022-12-18T01:23:12.715Z,100562.75
2022-12-18T01:25:39.185Z,100566.22
2022-12-18T01:28:05.727Z,100565.47
2022-12-18T01:30:32.235Z,100567.03
2022-12-18T01:33:00.815Z,100564.94
2022-12-18T01:35:27.283Z,100569.13
2022-12-18T01:37:53.746Z,100571.91
2022-12-18T01:40:20.129Z,100570.25
2022-12-18T01:42:46.450Z,100573.78
2022-12-18T01:45:12.796Z,100580.41
2022-12-18T01:47:39.159Z,100584.75
2022-12-18T01:50:05.481Z,100588.47
2022-12-18T01:52:31.923Z,100588.59
2022-12-18T01:54:58.557Z,100588.88
2022-12-18T01:57:24.984Z,100581.97
2022-12-18T01:59:51.562Z,100583.28
2022-12-18T02:02:18.023Z,100582.63
2022-12-18T02:04:49.294Z,100586.00
2022-12-18T02:07:16.430Z,100584.50
2022-12-18T02:09:42.891Z,100593.50
2022-12-18T02:12:09.822Z,100592.13
2022-12-18T02:14:36.398Z,100589.75
2022-12-18T02:17:03.464Z,100595.13
2022-12-18T02:19:30.017Z,100596.09
2022-12-18T02:21:57.402Z,100593.53
2022-12-18T02:24:24.008Z,100599.66
2022-12-18T02:26:50.647Z,100603.03
2022-12-18T02:29:17.093Z,100609.91
2022-12-18T02:31:43.755Z,100599.63
2022-12-18T02:34:10.381Z,100609.06
2022-12-18T02:36:37.766Z,100611.63
2022-12-18T02:39:04.198Z,100608.13
2022-12-18T02:41:30.612Z,100608.84
2022-12-18T02:43:57.007Z,100614.19
2022-12-18T02:46:23.532Z,100609.56
2022-12-18T02:48:50.222Z,100611.38
2022-12-18T02:51:16.679Z,100618.16
2022-12-18T02:53:43.103Z,100612.28
2022-12-18T02:56:09.513Z,100626.22
2022-12-18T02:58:35.948Z,100630.75
2022-12-18T03:01:02.431Z,100638.44
2022-12-18T03:03:28.873Z,100627.09
2022-12-18T03:05:55.249Z,100635.59
2022-12-18T03:08:21.973Z,100634.63
2022-12-18T03:10:48.414Z,100638.00
2022-12-18T03:13:14.825Z,100635.72
2022-12-18T03:15:41.208Z,100624.56
2022-12-18T03:18:07.621Z,100623.63
2022-12-18T03:20:34.084Z,100632.44
2022-12-18T03:23:00.492Z,100634.72
2022-12-18T03:25:26.896Z,100633.34
2022-12-18T03:27:53.229Z,100632.50
2022-12-18T03:30:19.637Z,100637.41
2022-12-18T03:32:45.995Z,100625.91
2022-12-18T03:35:12.457Z,100634.25
2022-12-18T03:37:38.812Z,100633.25
2022-12-18T03:40:05.722Z,100629.06
2022-12-18T03:42:35.140Z,100631.97
2022-12-18T03:45:02.006Z,100638.84
2022-12-18T03:47:28.412Z,100638.44
2022-12-18T03:49:54.839Z,100640.53
2022-12-18T03:52:21.233Z,100637.88
2022-12-18T03:54:47.592Z,100653.22
2022-12-18T03:57:13.974Z,100661.91
2022-12-18T03:59:40.465Z,100653.59
2022-12-18T04:02:06.930Z,100658.72
2022-12-18T04:04:33.383Z,100663.84
2022-12-18T04:06:59.748Z,100660.00
2022-12-18T04:09:26.324Z,100662.41
2022-12-18T04:11:52.726Z,100670.53
2022-12-18T04:14:19.166Z,100675.75
2022-12-18T04:16:45.630Z,100675.19
2022-12-18T04:19:12.195Z,100673.69
2022-12-18T04:21:38.542Z,100671.91
2022-12-18T04:24:04.967Z,100681.66
2022-12-18T04:26:31.373Z,100676.56
2022-12-18T04:28:57.804Z,100681.97
2022-12-18T04:31:24.219Z,100688.72
2022-12-18T04:33:50.692Z,100689.47
2022-12-18T04:36:17.095Z,100687.06
2022-12-18T04:38:43.468Z,100700.09
2022-12-18T04:41:09.838Z,100695.41
2022-12-18T04:43:36.305Z,100694.28
2022-12-18T04:46:02.862Z,100693.97
2022-12-18T04:48:29.368Z,100694.03
2022-12-18T04:50:55.778Z,100702.25
2022-12-18T04:53:22.173Z,100697.97
2022-12-18T04:55:48.685Z,100702.38
2022-12-18T04:58:15.134Z,100708.75
2022-12-18T05:00:41.557Z,100718.78
2022-12-18T05:03:08.134Z,100724.13
2022-12-18T05:05:34.544Z,100718.59
2022-12-18T05:08:00.950Z,100722.38
2022-12-18T05:10:27.388Z,100729.88
2022-12-18T05:12:54.712Z,100733.16
2022-12-18T05:15:21.071Z,100727.38
2022-12-18T05:17:47.440Z,100732.81
2022-12-18T05:20:13.971Z,100732.03
2022-12-18T05:22:40.350Z,100736.13
2022-12-18T05:25:06.681Z,100739.91
2022-12-18T05:27:33.178Z,100737.78
2022-12-18T05:29:59.606Z,100733.94
2022-12-18T05:32:26.054Z,100731.78
2022-12-18T05:34:52.536Z,100738.66
2022-12-18T05:37:18.937Z,100742.97
2022-12-18T05:39:45.368Z,100741.84
2022-12-18T05:42:11.800Z,100746.28
2022-12-18T05:44:38.292Z,100742.50
2022-12-18T05:47:04.796Z,100746.69
2022-12-18T05:49:31.171Z,100740.75
2022-12-18T05:51:57.622Z,100747.25
2022-12-18T05:54:24.044Z,100743.06
2022-12-18T05:56:50.405Z,100748.66
2022-12-18T05:59:16.988Z,100751.81
2022-12-18T06:01:43.630Z,100738.88
2022-12-18T06:04:10.192Z,100751.94
2022-12-18T06:06:36.541Z,100749.13
2022-12-18T06:09:03.735Z,100763.72
2022-12-18T06:11:30.179Z,100762.06
2022-12-18T06:13:59.110Z,100772.84
2022-12-18T06:16:25.990Z,100779.19
2022-12-18T06:18:52.379Z,100777.00
2022-12-18T06:21:18.854Z,100782.56
2022-12-18T06:23:45.228Z,100781.88
2022-12-18T06:26:11.530Z,100778.47
2022-12-18T06:28:37.992Z,100789.81
2022-12-18T06:31:04.406Z,100796.00
2022-12-18T06:33:30.974Z,100790.41
2022-12-18T06:36:01.006Z,100788.31
2022-12-18T06:38:27.892Z,100789.28
2022-12-18T06:40:54.403Z,100799.47
2022-12-18T06:43:20.844Z,100797.47
2022-12-18T06:45:47.278Z,100797.38
2022-12-18T06:48:13.655Z,100793.81
2022-12-18T06:50:40.080Z,100801.25
2022-12-18T06:53:06.428Z,100806.09
2022-12-18T06:55:33.993Z,100818.06
2022-12-18T06:58:00.438Z,100810.72
2022-12-18T07:00:27.061Z,100826.13
2022-12-18T07:02:53.742Z,100823.66
2022-12-18T07:05:23.436Z,100825.28
2022-12-18T07:07:51.957Z,100841.59
2022-12-18T07:10:18.367Z,100836.16
2022-12-18T07:12:44.774Z,100831.91
2022-12-18T07:15:11.242Z,100839.91
2022-12-18T07:17:37.663Z,100841.47
2022-12-18T07:20:04.099Z,100846.16
2022-12-18T07:22:30.527Z,100853.22
2022-12-18T07:24:56.993Z,100858.94
2022-12-18T07:27:23.445Z,100853.06
2022-12-18T07:29:49.870Z,100859.94
2022-12-18T07:32:17.315Z,100856.88
2022-12-18T07:34:43.699Z,100865.63
2022-12-18T07:37:10.103Z,100867.50
2022-12-18T07:39:36.566Z,100878.81
2022-12-18T07:42:02.989Z,100878.19
2022-12-18T07:44:31.760Z,100872.25
2022-12-18T07:46:58.211Z,100885.41
2022-12-18T07:49:24.631Z,100885.50
2022-12-18T07:51:51.079Z,100890.81
2022-12-18T07:54:17.647Z,100883.84
2022-12-18T07:56:44.073Z,100886.38
2022-12-18T07:59:11.512Z,100900.91
2022-12-18T08:01:38.036Z,100893.50
2022-12-18T08:04:04.607Z,100904.88
2022-12-18T08:06:30.996Z,100904.94
2022-12-18T08:08:57.368Z,100913.59
2022-12-18T08:11:24.062Z,100912.06
2022-12-18T08:13:50.586Z,100907.72
2022-12-18T08:16:17.044Z,100921.34
2022-12-18T08:18:43.582Z,100917.22
2022-12-18T08:21:10.043Z,100922.91
2022-12-18T08:23:42.122Z,100906.47
2022-12-18T08:26:09.512Z,100906.97
2022-12-18T08:28:35.945Z,100906.41
2022-12-18T08:31:02.346Z,100901.81
2022-12-18T08:33:29.605Z,100910.75
2022-12-18T08:35:56.139Z,100916.47
2022-12-18T08:38:22.570Z,100918.63
2022-12-18T08:40:49.053Z,100915.53
2022-12-18T08:43:15.757Z,100926.34
2022-12-18T08:45:42.338Z,100916.06
2022-12-18T08:48:08.859Z,100920.31
2022-12-18T08:50:35.292Z,100915.75
2022-12-18T08:53:01.705Z,100924.84
2022-12-18T08:55:28.144Z,100924.19
2022-12-18T08:57:54.641Z,100926.38
2022-12-18T09:00:21.033Z,100927.25
2022-12-18T09:02:47.758Z,100934.00
2022-12-18T09:05:14.404Z,100935.56
2022-12-18T09:07:40.834Z,100933.22
2022-12-18T09:10:07.289Z,100946.28
2022-12-18T09:12:33.859Z,100940.81
2022-12-18T09:15:00.672Z,100939.81
2022-12-18T09:17:27.339Z,100945.66
2022-12-18T09:19:53.761Z,100951.88
2022-12-18T09:22:20.511Z,100948.25
2022-12-18T09:24:47.311Z,100946.88
2022-12-18T09:27:13.741Z,100949.66
2022-12-18T09:29:40.710Z,100956.63
2022-12-18T09:32:07.237Z,100950.91
2022-12-18T09:34:33.719Z,100945.59
2022-12-18T09:37:00.173Z,100946.19
2022-12-18T09:39:26.752Z,100930.28
2022-12-18T09:41:54.262Z,100937.47
2022-12-18T09:44:20.720Z,100946.00
2022-12-18T09:46:47.194Z,100942.03
2022-12-18T09:49:13.993Z,100942.16
2022-12-18T09:51:40.356Z,100938.69
2022-12-18T09:54:07.200Z,100928.41
2022-12-18T09:56:33.591Z,100925.91
2022-12-18T09:59:00.047Z,100927.75
2022-12-18T10:01:31.975Z,100927.66
2022-12-18T10:04:04.411Z,100938.75
2022-12-18T10:06:31.340Z,100930.94
2022-12-18T10:08:57.700Z,100923.22
2022-12-18T10:11:24.167Z,100926.13
2022-12-18T10:13:50.583Z,100912.75
2022-12-18T10:16:17.124Z,100922.00
2022-12-18T10:18:45.557Z,100920.09
2022-12-18T10:21:11.904Z,100927.25
2022-12-18T10:23:39.739Z,100923.56
2022-12-18T10:26:07.921Z,100910.56
2022-12-18T10:28:35.625Z,100913.06
2022-12-18T10:31:03.148Z,100920.19
2022-12-18T10:33:30.448Z,100908.97
2022-12-18T10:35:58.190Z,100913.41
2022-12-18T10:38:24.607Z,100913.44
2022-12-18T10:40:51.114Z,100916.75
2022-12-18T10:43:17.486Z,100924.78
2022-12-18T10:45:43.897Z,100915.78
2022-12-18T10:48:10.434Z,100907.88
2022-12-18T10:51:09.065Z,100905.47
2022-12-18T10:53:23.270Z,100908.91
2022-12-18T10:55:50.102Z,100895.09
2022-12-18T10:58:17.693Z,100895.44
2022-12-18T11:00:46.376Z,100897.28
2022-12-18T11:03:16.199Z,100897.22
2022-12-18T11:05:42.755Z,100901.25
2022-12-18T11:08:09.196Z,100901.28
2022-12-18T11:10:35.655Z,100890.19
2022-12-18T11:13:02.102Z,100891.81
2022-12-18T11:15:30.157Z,100891.06
2022-12-18T11:17:56.553Z,100885.31
2022-12-18T11:20:23.041Z,100879.25
2022-12-18T11:22:49.501Z,100886.88
2022-12-18T11:25:32.607Z,100886.84
2022-12-18T11:28:00.434Z,100897.19
2022-12-18T11:30:26.883Z,100887.69
2022-12-18T11:32:54.276Z,100886.56
2022-12-18T11:35:21.230Z,100881.41
2022-12-18T11:37:47.773Z,100875.34
2022-12-18T11:40:14.501Z,100876.03
2022-12-18T11:42:40.865Z,100876.84
2022-12-18T11:45:07.467Z,100877.72
2022-12-18T11:47:34.517Z,100872.56
2022-12-18T11:50:00.965Z,100869.16
2022-12-18T11:52:27.336Z,100863.91
2022-12-18T11:54:53.812Z,100865.66
2022-12-18T11:57:20.238Z,100859.69
2022-12-18T11:59:46.699Z,100858.69
2022-12-18T12:02:13.375Z,100865.34
2022-12-18T12:04:40.235Z,100870.72
2022-12-18T12:07:07.487Z,100864.84
2022-12-18T12:09:34.035Z,100869.41
2022-12-18T12:12:00.469Z,100881.38
2022-12-18T12:14:26.924Z,100877.97
2022-12-18T12:16:53.346Z,100868.66
2022-12-18T12:19:19.842Z,100865.69
2022-12-18T12:21:46.276Z,100862.06
2022-12-18T12:24:12.888Z,100860.66
2022-12-18T12:26:39.322Z,100860.13
2022-12-18T12:29:05.828Z,100868.06
2022-12-18T12:31:34.984Z,100874.38
2022-12-18T12:34:01.539Z,100864.00
2022-12-18T12:36:28.258Z,100862.59
2022-12-18T12:38:54.694Z,100851.63
2022-12-18T12:41:21.080Z,100847.78
2022-12-18T12:43:50.322Z,100850.94
2022-12-18T12:46:17.859Z,100844.84
2022-12-18T12:48:45.239Z,100846.09
2022-12-18T12:51:12.288Z,100850.00
2022-12-18T12:53:38.760Z,100852.88
2022-12-18T12:56:06.463Z,100855.00
2022-12-18T12:58:32.969Z,100852.50
2022-12-18T13:00:59.698Z,100853.84
2022-12-18T13:03:26.144Z,100863.44
2022-12-18T13:05:52.799Z,100863.25
2022-12-18T13:08:19.198Z,100869.53
2022-12-18T13:10:48.732Z,100869.41
2022-12-18T13:13:18.648Z,100867.91
2022-12-18T13:15:50.289Z,100872.69
2022-12-18T13:18:17.081Z,100874.69
2022-12-18T13:20:46.584Z,100882.22
2022-12-18T13:23:17.406Z,100882.22
2022-12-18T13:25:44.637Z,100888.88
2022-12-18T13:28:11.095Z,100879.97
2022-12-18T13:30:38.546Z,100883.00
2022-12-18T13:33:05.430Z,100879.00
2022-12-18T13:35:31.893Z,100885.22
2022-12-18T13:37:58.542Z,100885.66
2022-12-18T13:40:25.308Z,100883.28
2022-12-18T13:42:51.659Z,100880.75
2022-12-18T13:45:18.110Z,100884.22
2022-12-18T13:47:45.270Z,100885.41
2022-12-18T13:50:12.185Z,100889.72
2022-12-18T13:52:38.967Z,100889.31
2022-12-18T13:55:05.572Z,100890.78
2022-12-18T13:57:32.668Z,100897.13
2022-12-18T13:59:59.308Z,100896.38
2022-12-18T14:02:25.876Z,100903.72
2022-12-18T14:04:52.663Z,100906.91
2022-12-18T14:07:19.593Z,100904.34
2022-12-18T14:09:47.339Z,100893.09
2022-12-18T14:12:14.841Z,100904.41
2022-12-18T14:14:42.305Z,100905.91
2022-12-18T14:17:08.778Z,100913.13
2022-12-18T14:19:35.780Z,100910.94
2022-12-18T14:22:02.209Z,100909.50
2022-12-18T14:24:28.637Z,100918.13
2022-12-18T14:26:55.175Z,100919.53
2022-12-18T14:29:21.778Z,100909.94
2022-12-18T14:31:49.826Z,100917.88
2022-12-18T14:34:17.855Z,100917.06
2022-12-18T14:36:44.280Z,100915.31
2022-12-18T14:39:10.820Z,100918.84
2022-12-18T14:41:39.293Z,100922.34
2022-12-18T14:44:05.749Z,100928.69
2022-12-18T14:46:32.698Z,100921.63
2022-12-18T14:48:59.079Z,100927.28
2022-12-18T14:51:25.512Z,100925.47
2022-12-18T14:53:54.894Z,100926.03
2022-12-18T14:56:21.805Z,100931.72
2022-12-18T14:58:49.068Z,100920.72
2022-12-18T15:01:15.944Z,100925.28
2022-12-18T15:03:43.201Z,100931.13
2022-12-18T15:06:10.566Z,100940.94
2022-12-18T15:08:37.829Z,100937.88
2022-12-18T15:11:10.332Z,100938.97
2022-12-18T15:13:40.846Z,100939.06
2022-12-18T15:16:07.741Z,100930.56
2022-12-18T15:18:34.534Z,100938.19
2022-12-18T15:21:01.376Z,100944.56
2022-12-18T15:23:28.420Z,100936.63
2022-12-18T15:25:55.379Z,100933.88
2022-12-18T15:28:22.186Z,100941.25
2022-12-18T15:30:49.241Z,100942.81
2022-12-18T15:33:16.439Z,100930.19
2022-12-18T15:35:46.948Z,100929.44
2022-12-18T15:38:14.204Z,100925.75
2022-12-18T15:40:41.214Z,100932.16
2022-12-18T15:43:08.264Z,100929.09
2022-12-18T15:45:35.460Z,100933.66
2022-12-18T15:48:02.290Z,100939.53
2022-12-18T15:50:29.241Z,100935.75
2022-12-18T15:52:57.286Z,100941.41
2022-12-18T15:55:24.534Z,100950.06
2022-12-18T15:57:52.145Z,100944.88
2022-12-18T16:00:19.889Z,100948.38
2022-12-18T16:02:47.082Z,100942.88
2022-12-18T16:05:14.649Z,100946.97
2022-12-18T16:07:42.115Z,100954.09
2022-12-18T16:10:09.701Z,100959.75
2022-12-18T16:12:37.333Z,100954.50
2022-12-18T16:15:04.299Z,100958.81
2022-12-18T16:17:32.474Z,100949.28
2022-12-18T16:19:59.760Z,100946.13
2022-12-18T16:22:27.027Z,100952.13
2022-12-18T16:24:54.624Z,100932.75
2022-12-18T16:27:21.188Z,100939.69
2022-12-18T16:29:48.273Z,100943.16
2022-12-18T16:32:15.219Z,100945.16
2022-12-18T16:34:44.453Z,100943.53
2022-12-18T16:37:15.884Z,100938.13
2022-12-18T16:39:42.856Z,100940.38
2022-12-18T16:42:11.652Z,100941.47
2022-12-18T16:44:38.368Z,100944.69
2022-12-18T16:47:04.947Z,100942.31
2022-12-18T16:49:36.679Z,100934.94
2022-12-18T16:52:04.196Z,100936.94
2022-12-18T16:54:30.946Z,100937.22
2022-12-18T16:56:57.393Z,100941.72
2022-12-18T16:59:23.937Z,100929.47
2022-12-18T17:01:51.433Z,100932.66
2022-12-18T17:04:19.583Z,100941.25
2022-12-18T17:06:46.821Z,100936.41
2022-12-18T17:09:13.892Z,100939.28
2022-12-18T17:11:40.905Z,100941.13
2022-12-18T17:14:08.201Z,100930.63
2022-12-18T17:16:35.162Z,100930.78
2022-12-18T17:19:02.881Z,100921.28
2022-12-18T17:21:33.269Z,100921.53
2022-12-18T17:24:00.370Z,100918.00
2022-12-18T17:26:28.658Z,100924.41
2022-12-18T17:28:58.851Z,100929.94
2022-12-18T17:31:25.854Z,100919.81
2022-12-18T17:33:52.532Z,100925.38
2022-12-18T17:36:19.535Z,100927.91
2022-12-18T17:38:48.027Z,100927.91
2022-12-18T17:41:15.119Z,100926.59
2022-12-18T17:43:42.599Z,100934.47
2022-12-18T17:46:10.092Z,100932.09
2022-12-18T17:48:37.032Z,100928.03
2022-12-18T17:51:06.043Z,100935.25
2022-12-18T17:53:32.702Z,100935.13
2022-12-18T17:56:05.313Z,100928.00
2022-12-18T17:58:31.801Z,100921.00
2022-12-18T18:00:58.837Z,100918.13
2022-12-18T18:03:26.848Z,100916.19
2022-12-18T18:05:53.871Z,100919.06
2022-12-18T18:08:20.791Z,100911.06
2022-12-18T18:10:48.278Z,100920.13
2022-12-18T18:13:16.075Z,100920.88
2022-12-18T18:15:43.872Z,100916.72
2022-12-18T18:18:11.315Z,100925.16
2022-12-18T18:20:38.341Z,100924.97
2022-12-18T18:23:05.923Z,100929.19
2022-12-18T18:25:33.012Z,100933.81
2022-12-18T18:28:05.469Z,100929.78
2022-12-18T18:30:33.473Z,100921.09
2022-12-18T18:33:01.260Z,100925.03
2022-12-18T18:35:52.929Z,100920.19
2022-12-18T18:38:15.867Z,100920.25
2022-12-18T18:40:43.406Z,100918.34
2022-12-18T18:43:10.206Z,100920.97
2022-12-18T18:45:38.409Z,100930.72
2022-12-18T18:48:07.509Z,100930.28
2022-12-18T18:50:35.009Z,100932.94
2022-12-18T18:53:01.912Z,100921.34
2022-12-18T18:55:28.848Z,100920.50
2022-12-18T18:57:56.433Z,100919.13
2022-12-18T19:00:23.589Z,100919.44
2022-12-18T19:02:50.606Z,100919.47
2022-12-18T19:05:18.511Z,100922.75
2022-12-18T19:07:45.128Z,100919.06
2022-12-18T19:10:11.572Z,100914.53
2022-12-18T19:12:38.348Z,100913.41
2022-12-18T19:15:07.535Z,100912.06
2022-12-18T19:17:34.607Z,100917.31
2022-12-18T19:20:02.093Z,100916.97
2022-12-18T19:22:29.088Z,100921.22
2022-12-18T19:24:55.972Z,100920.84
2022-12-18T19:27:23.402Z,100915.84
2022-12-18T19:29:51.177Z,100909.66
2022-12-18T19:32:19.647Z,100912.78
2022-12-18T19:34:46.456Z,100918.91
2022-12-18T19:37:15.152Z,100914.56
2022-12-18T19:39:43.325Z,100913.34
2022-12-18T19:42:10.045Z,100907.00
2022-12-18T19:44:36.983Z,100907.81
2022-12-18T19:47:04.823Z,100911.28
2022-12-18T19:49:32.685Z,100911.81
2022-12-18T19:52:00.740Z,100909.44
2022-12-18T19:54:28.726Z,100915.38
2022-12-18T19:56:55.535Z,100921.09
2022-12-18T19:59:23.494Z,100923.53
2022-12-18T20:01:50.572Z,100926.28
2022-12-18T20:04:17.394Z,100912.69
2022-12-18T20:06:45.069Z,100917.25
2022-12-18T20:09:11.541Z,100905.75
2022-12-18T20:11:41.666Z,100920.97
2022-12-18T20:14:09.193Z,100913.69
2022-12-18T20:16:38.514Z,100906.00
2022-12-18T20:19:06.176Z,100907.69
2022-12-18T20:21:33.364Z,100905.84
2022-12-18T20:24:00.288Z,100901.41
2022-12-18T20:26:28.170Z,100903.41
2022-12-18T20:28:55.887Z,100899.88
2022-12-18T20:31:23.412Z,100902.53
2022-12-18T20:33:52.034Z,100904.75
2022-12-18T20:36:22.596Z,100899.91
2022-12-18T20:38:51.596Z,100898.09
2022-12-18T20:41:21.722Z,100905.41
2022-12-18T20:43:48.824Z,100897.00
2022-12-18T20:46:15.685Z,100894.41
2022-12-18T20:48:42.367Z,100890.91
2022-12-18T20:51:11.132Z,100888.38
2022-12-18T20:53:38.704Z,100889.44
2022-12-18T20:56:09.239Z,100879.97
2022-12-18T20:58:35.957Z,100884.75
2022-12-18T21:01:04.393Z,100884.69
2022-12-18T21:03:31.411Z,100878.16
2022-12-18T21:05:58.298Z,100871.09
2022-12-18T21:08:25.038Z,100879.03
2022-12-18T21:10:53.072Z,100888.78
2022-12-18T21:13:22.139Z,100879.50
2022-12-18T21:15:48.521Z,100884.56
2022-12-18T21:18:16.976Z,100885.59
2022-12-18T21:20:43.610Z,100871.94
2022-12-18T21:23:15.571Z,100873.50
2022-12-18T21:25:43.237Z,100873.31
2022-12-18T21:28:09.994Z,100877.66
2022-12-18T21:30:37.494Z,100872.13
2022-12-18T21:33:04.021Z,100866.38
2022-12-18T21:35:32.031Z,100854.44
2022-12-18T21:37:58.712Z,100859.84
2022-12-18T21:40:25.320Z,100855.53
2022-12-18T21:42:51.736Z,100858.78
2022-12-18T21:45:18.179Z,100854.13
2022-12-18T21:47:44.610Z,100849.81
2022-12-18T21:50:11.460Z,100844.19
2022-12-18T21:52:37.942Z,100846.03
2022-12-18T21:55:09.496Z,100854.97
2022-12-18T21:57:36.623Z,100858.22
2022-12-18T22:00:03.050Z,100855.53
2022-12-18T22:02:30.825Z,100858.88
2022-12-18T22:04:57.335Z,100853.50
2022-12-18T22:07:24.132Z,100840.59
2022-12-18T22:09:50.550Z,100847.59
2022-12-18T22:12:16.963Z,100851.09
2022-12-18T22:14:44.132Z,100855.31
2022-12-18T22:17:10.480Z,100856.41
2022-12-18T22:19:42.890Z,100852.72
2022-12-18T22:22:09.916Z,100861.66
2022-12-18T22:24:36.315Z,100846.94
2022-12-18T22:27:02.734Z,100844.63
2022-12-18T22:29:29.424Z,100839.50
2022-12-18T22:31:57.371Z,100838.78
2022-12-18T22:34:24.094Z,100837.66
2022-12-18T22:36:50.722Z,100832.28
2022-12-18T22:39:17.220Z,100842.38
2022-12-18T22:41:44.246Z,100820.28
2022-12-18T22:44:11.768Z,100825.81
2022-12-18T22:46:41.555Z,100809.66
2022-12-18T22:49:08.308Z,100809.97
2022-12-18T22:51:34.913Z,100801.44
2022-12-18T22:54:01.467Z,100796.00
2022-12-18T22:56:28.683Z,100798.28
2022-12-18T22:58:56.313Z,100807.56
2022-12-18T23:01:25.120Z,100794.16
2022-12-18T23:03:51.648Z,100802.81
2022-12-18T23:06:18.161Z,100805.22
2022-12-18T23:08:44.716Z,100806.16
2022-12-18T23:11:11.458Z,100802.63
2022-12-18T23:13:37.913Z,100801.56
2022-12-18T23:16:05.400Z,100799.25
2022-12-18T23:18:32.014Z,100794.94
2022-12-18T23:20:58.506Z,100789.53
2022-12-18T23:23:26.064Z,100799.81
2022-12-18T23:25:52.661Z,100781.88
2022-12-18T23:28:19.312Z,100790.63
2022-12-18T23:30:45.667Z,100793.22
2022-12-18T23:33:12.094Z,100792.00
2022-12-18T23:35:39.945Z,100792.81
2022-12-18T23:38:06.606Z,100787.63
2022-12-18T23:40:33.102Z,100787.81
2022-12-18T23:43:01.860Z,100789.31
2022-12-18T23:45:28.241Z,100784.97
2022-12-18T23:47:54.591Z,100772.72
2022-12-18T23:50:25.451Z,100772.78
2022-12-18T23:52:55.645Z,100775.00
2022-12-18T23:55:24.438Z,100772.78
2022-12-18T23:57:51.049Z,100769.00
